sensor_id;sensor_type;location;lat;lon;timestamp;P1;durP1;ratioP1;P2;durP2;ratioP2
21639;SDS011;10981;45.462;10.974;2023-06-26T00:00:50;5.80;;;4.15;;
21639;SDS011;10981;45.462;10.974;2023-06-26T00:03:19;5.88;;;4.78;;
21639;SDS011;10981;45.462;10.974;2023-06-26T00:05:47;6.65;;;4.05;;
21639;SDS011;10981;45.462;10.974;2023-06-26T00:08:15;5.22;;;4.10;;
21639;SDS011;10981;45.462;10.974;2023-06-26T00:10:43;6.68;;;4.38;;
21639;SDS011;10981;45.462;10.974;2023-06-26T00:13:13;7.72;;;4.47;;
21639;SDS011;10981;45.462;10.974;2023-06-26T00:15:41;6.70;;;4.68;;
21639;SDS011;10981;45.462;10.974;2023-06-26T00:18:09;7.07;;;4.00;;
21639;SDS011;10981;45.462;10.974;2023-06-26T00:20:37;6.82;;;4.47;;
21639;SDS011;10981;45.462;10.974;2023-06-26T00:23:06;6.78;;;4.32;;
21639;SDS011;10981;45.462;10.974;2023-06-26T00:25:34;7.18;;;4.28;;
21639;SDS011;10981;45.462;10.974;2023-06-26T00:28:03;5.53;;;4.53;;
21639;SDS011;10981;45.462;10.974;2023-06-26T00:30:31;6.60;;;4.07;;
21639;SDS011;10981;45.462;10.974;2023-06-26T00:32:59;7.38;;;4.22;;
21639;SDS011;10981;45.462;10.974;2023-06-26T00:35:28;6.30;;;4.38;;
21639;SDS011;10981;45.462;10.974;2023-06-26T00:37:56;8.85;;;4.70;;
21639;SDS011;10981;45.462;10.974;2023-06-26T00:40:24;8.63;;;4.20;;
21639;SDS011;10981;45.462;10.974;2023-06-26T00:42:53;6.47;;;4.03;;
21639;SDS011;10981;45.462;10.974;2023-06-26T00:45:22;6.20;;;4.72;;
21639;SDS011;10981;45.462;10.974;2023-06-26T00:48:09;6.00;;;4.07;;
21639;SDS011;10981;45.462;10.974;2023-06-26T00:50:40;5.88;;;4.43;;
21639;SDS011;10981;45.462;10.974;2023-06-26T00:53:11;7.28;;;4.70;;
21639;SDS011;10981;45.462;10.974;2023-06-26T00:55:39;6.80;;;4.53;;
21639;SDS011;10981;45.462;10.974;2023-06-26T00:58:09;6.18;;;4.13;;
21639;SDS011;10981;45.462;10.974;2023-06-26T01:00:37;8.23;;;4.72;;
21639;SDS011;10981;45.462;10.974;2023-06-26T01:03:06;7.03;;;4.43;;
21639;SDS011;10981;45.462;10.974;2023-06-26T01:05:35;6.35;;;4.47;;
21639;SDS011;10981;45.462;10.974;2023-06-26T01:08:03;5.07;;;4.20;;
21639;SDS011;10981;45.462;10.974;2023-06-26T01:10:32;5.70;;;3.97;;
21639;SDS011;10981;45.462;10.974;2023-06-26T01:13:00;7.97;;;4.88;;
21639;SDS011;10981;45.462;10.974;2023-06-26T01:15:29;5.75;;;4.32;;
21639;SDS011;10981;45.462;10.974;2023-06-26T01:17:57;6.90;;;4.65;;
21639;SDS011;10981;45.462;10.974;2023-06-26T01:20:27;6.57;;;4.78;;
21639;SDS011;10981;45.462;10.974;2023-06-26T01:28:51;6.15;;;4.30;;
21639;SDS011;10981;45.462;10.974;2023-06-26T01:31:20;9.32;;;4.65;;
21639;SDS011;10981;45.462;10.974;2023-06-26T01:33:49;5.72;;;4.60;;
21639;SDS011;10981;45.462;10.974;2023-06-26T01:36:20;6.57;;;4.68;;
21639;SDS011;10981;45.462;10.974;2023-06-26T01:38:49;8.82;;;4.93;;
21639;SDS011;10981;45.462;10.974;2023-06-26T01:41:18;5.88;;;4.97;;
21639;SDS011;10981;45.462;10.974;2023-06-26T01:46:40;5.40;;;4.90;;
21639;SDS011;10981;45.462;10.974;2023-06-26T01:52:36;10.27;;;5.07;;
21639;SDS011;10981;45.462;10.974;2023-06-26T01:57:48;6.75;;;4.65;;
21639;SDS011;10981;45.462;10.974;2023-06-26T02:00:21;7.38;;;4.93;;
21639;SDS011;10981;45.462;10.974;2023-06-26T02:02:51;8.00;;;4.85;;
21639;SDS011;10981;45.462;10.974;2023-06-26T02:05:19;6.57;;;4.80;;
21639;SDS011;10981;45.462;10.974;2023-06-26T02:07:47;9.65;;;4.93;;
21639;SDS011;10981;45.462;10.974;2023-06-26T02:10:16;8.02;;;4.88;;
21639;SDS011;10981;45.462;10.974;2023-06-26T02:12:44;6.18;;;4.35;;
21639;SDS011;10981;45.462;10.974;2023-06-26T02:15:14;9.57;;;5.57;;
21639;SDS011;10981;45.462;10.974;2023-06-26T02:17:42;6.03;;;4.40;;
21639;SDS011;10981;45.462;10.974;2023-06-26T02:20:15;9.43;;;4.72;;
21639;SDS011;10981;45.462;10.974;2023-06-26T02:22:43;7.45;;;5.10;;
21639;SDS011;10981;45.462;10.974;2023-06-26T02:25:13;7.70;;;4.75;;
21639;SDS011;10981;45.462;10.974;2023-06-26T02:27:42;11.48;;;5.43;;
21639;SDS011;10981;45.462;10.974;2023-06-26T02:30:11;9.73;;;5.07;;
21639;SDS011;10981;45.462;10.974;2023-06-26T02:32:40;9.07;;;5.32;;
21639;SDS011;10981;45.462;10.974;2023-06-26T02:35:08;9.30;;;4.60;;
21639;SDS011;10981;45.462;10.974;2023-06-26T02:40:09;6.50;;;4.53;;
21639;SDS011;10981;45.462;10.974;2023-06-26T02:42:40;6.30;;;4.53;;
21639;SDS011;10981;45.462;10.974;2023-06-26T02:45:08;8.05;;;4.78;;
21639;SDS011;10981;45.462;10.974;2023-06-26T02:47:37;8.68;;;5.30;;
21639;SDS011;10981;45.462;10.974;2023-06-26T02:50:09;10.68;;;4.93;;
21639;SDS011;10981;45.462;10.974;2023-06-26T02:53:02;7.45;;;4.43;;
21639;SDS011;10981;45.462;10.974;2023-06-26T02:55:34;7.00;;;4.88;;
21639;SDS011;10981;45.462;10.974;2023-06-26T02:58:05;6.60;;;4.32;;
21639;SDS011;10981;45.462;10.974;2023-06-26T03:00:37;10.85;;;5.47;;
21639;SDS011;10981;45.462;10.974;2023-06-26T03:03:12;6.35;;;4.97;;
21639;SDS011;10981;45.462;10.974;2023-06-26T03:05:40;5.22;;;4.50;;
21639;SDS011;10981;45.462;10.974;2023-06-26T03:08:09;9.40;;;5.47;;
21639;SDS011;10981;45.462;10.974;2023-06-26T03:10:37;11.90;;;5.10;;
21639;SDS011;10981;45.462;10.974;2023-06-26T03:13:06;7.45;;;4.93;;
21639;SDS011;10981;45.462;10.974;2023-06-26T03:15:35;8.10;;;5.30;;
21639;SDS011;10981;45.462;10.974;2023-06-26T03:18:03;7.10;;;4.82;;
21639;SDS011;10981;45.462;10.974;2023-06-26T03:20:33;7.07;;;5.18;;
21639;SDS011;10981;45.462;10.974;2023-06-26T03:23:01;8.07;;;5.65;;
21639;SDS011;10981;45.462;10.974;2023-06-26T03:25:29;6.75;;;4.40;;
21639;SDS011;10981;45.462;10.974;2023-06-26T03:28:18;13.63;;;5.43;;
21639;SDS011;10981;45.462;10.974;2023-06-26T03:30:49;6.50;;;4.80;;
21639;SDS011;10981;45.462;10.974;2023-06-26T03:33:18;9.25;;;5.18;;
21639;SDS011;10981;45.462;10.974;2023-06-26T03:35:46;5.72;;;4.47;;
21639;SDS011;10981;45.462;10.974;2023-06-26T03:38:15;8.55;;;5.05;;
21639;SDS011;10981;45.462;10.974;2023-06-26T03:40:44;10.57;;;5.30;;
21639;SDS011;10981;45.462;10.974;2023-06-26T03:43:13;10.60;;;5.07;;
21639;SDS011;10981;45.462;10.974;2023-06-26T03:45:52;9.68;;;5.32;;
21639;SDS011;10981;45.462;10.974;2023-06-26T03:48:20;6.75;;;4.93;;
21639;SDS011;10981;45.462;10.974;2023-06-26T03:50:49;9.27;;;5.78;;
21639;SDS011;10981;45.462;10.974;2023-06-26T03:53:17;7.75;;;5.50;;
21639;SDS011;10981;45.462;10.974;2023-06-26T03:55:46;7.32;;;5.03;;
21639;SDS011;10981;45.462;10.974;2023-06-26T03:58:14;6.28;;;5.05;;
21639;SDS011;10981;45.462;10.974;2023-06-26T04:00:42;8.35;;;4.80;;
21639;SDS011;10981;45.462;10.974;2023-06-26T04:03:10;5.25;;;4.50;;
21639;SDS011;10981;45.462;10.974;2023-06-26T04:05:38;5.75;;;4.43;;
21639;SDS011;10981;45.462;10.974;2023-06-26T04:08:07;6.53;;;5.13;;
21639;SDS011;10981;45.462;10.974;2023-06-26T04:10:36;9.57;;;5.07;;
21639;SDS011;10981;45.462;10.974;2023-06-26T04:13:05;7.45;;;4.65;;
21639;SDS011;10981;45.462;10.974;2023-06-26T04:15:33;6.75;;;4.82;;
21639;SDS011;10981;45.462;10.974;2023-06-26T04:18:02;5.32;;;4.38;;
21639;SDS011;10981;45.462;10.974;2023-06-26T04:20:30;7.50;;;5.07;;
21639;SDS011;10981;45.462;10.974;2023-06-26T04:22:58;10.77;;;5.10;;
21639;SDS011;10981;45.462;10.974;2023-06-26T04:25:26;13.38;;;5.40;;
21639;SDS011;10981;45.462;10.974;2023-06-26T04:27:56;7.57;;;5.80;;
21639;SDS011;10981;45.462;10.974;2023-06-26T04:30:24;8.07;;;5.13;;
21639;SDS011;10981;45.462;10.974;2023-06-26T04:32:52;8.65;;;5.32;;
21639;SDS011;10981;45.462;10.974;2023-06-26T04:35:20;7.40;;;5.55;;
21639;SDS011;10981;45.462;10.974;2023-06-26T04:37:49;8.68;;;5.25;;
21639;SDS011;10981;45.462;10.974;2023-06-26T04:40:17;7.45;;;5.10;;
21639;SDS011;10981;45.462;10.974;2023-06-26T04:42:45;8.05;;;5.65;;
21639;SDS011;10981;45.462;10.974;2023-06-26T04:45:13;9.48;;;5.88;;
21639;SDS011;10981;45.462;10.974;2023-06-26T04:47:41;9.45;;;5.10;;
21639;SDS011;10981;45.462;10.974;2023-06-26T04:50:10;9.07;;;5.40;;
21639;SDS011;10981;45.462;10.974;2023-06-26T04:52:38;11.85;;;5.47;;
21639;SDS011;10981;45.462;10.974;2023-06-26T04:55:06;9.93;;;5.35;;
21639;SDS011;10981;45.462;10.974;2023-06-26T04:57:34;6.53;;;4.85;;
21639;SDS011;10981;45.462;10.974;2023-06-26T05:00:05;9.43;;;4.95;;
21639;SDS011;10981;45.462;10.974;2023-06-26T05:02:37;11.55;;;6.15;;
21639;SDS011;10981;45.462;10.974;2023-06-26T05:05:06;16.95;;;6.10;;
21639;SDS011;10981;45.462;10.974;2023-06-26T05:07:34;15.85;;;7.28;;
21639;SDS011;10981;45.462;10.974;2023-06-26T05:10:02;9.68;;;6.45;;
21639;SDS011;10981;45.462;10.974;2023-06-26T05:12:31;14.90;;;5.68;;
21639;SDS011;10981;45.462;10.974;2023-06-26T05:15:00;6.43;;;4.80;;
21639;SDS011;10981;45.462;10.974;2023-06-26T05:17:29;10.38;;;5.70;;
21639;SDS011;10981;45.462;10.974;2023-06-26T05:19:57;8.00;;;5.28;;
21639;SDS011;10981;45.462;10.974;2023-06-26T05:22:25;8.15;;;5.65;;
21639;SDS011;10981;45.462;10.974;2023-06-26T05:24:54;12.00;;;5.80;;
21639;SDS011;10981;45.462;10.974;2023-06-26T05:27:26;11.90;;;6.97;;
21639;SDS011;10981;45.462;10.974;2023-06-26T05:29:54;12.27;;;5.95;;
21639;SDS011;10981;45.462;10.974;2023-06-26T05:32:23;9.73;;;4.90;;
21639;SDS011;10981;45.462;10.974;2023-06-26T05:34:52;7.80;;;4.93;;
21639;SDS011;10981;45.462;10.974;2023-06-26T05:37:25;14.93;;;5.93;;
21639;SDS011;10981;45.462;10.974;2023-06-26T05:39:57;12.32;;;5.93;;
21639;SDS011;10981;45.462;10.974;2023-06-26T05:42:26;6.80;;;4.95;;
21639;SDS011;10981;45.462;10.974;2023-06-26T05:44:55;14.27;;;6.20;;
21639;SDS011;10981;45.462;10.974;2023-06-26T05:47:23;11.02;;;5.85;;
21639;SDS011;10981;45.462;10.974;2023-06-26T05:49:52;10.32;;;5.53;;
21639;SDS011;10981;45.462;10.974;2023-06-26T05:52:21;13.15;;;5.28;;
21639;SDS011;10981;45.462;10.974;2023-06-26T05:54:49;11.18;;;5.00;;
21639;SDS011;10981;45.462;10.974;2023-06-26T05:57:18;12.18;;;5.78;;
21639;SDS011;10981;45.462;10.974;2023-06-26T05:59:47;11.48;;;4.85;;
21639;SDS011;10981;45.462;10.974;2023-06-26T06:02:15;9.70;;;4.95;;
21639;SDS011;10981;45.462;10.974;2023-06-26T06:04:43;10.35;;;5.88;;
21639;SDS011;10981;45.462;10.974;2023-06-26T06:07:12;10.95;;;5.68;;
21639;SDS011;10981;45.462;10.974;2023-06-26T06:09:41;13.32;;;5.68;;
21639;SDS011;10981;45.462;10.974;2023-06-26T06:12:09;11.80;;;5.65;;
21639;SDS011;10981;45.462;10.974;2023-06-26T06:14:38;8.65;;;5.50;;
21639;SDS011;10981;45.462;10.974;2023-06-26T06:17:06;8.00;;;5.63;;
21639;SDS011;10981;45.462;10.974;2023-06-26T06:19:34;10.25;;;5.88;;
21639;SDS011;10981;45.462;10.974;2023-06-26T06:22:02;15.35;;;6.35;;
21639;SDS011;10981;45.462;10.974;2023-06-26T06:24:31;8.65;;;5.75;;
21639;SDS011;10981;45.462;10.974;2023-06-26T06:26:59;15.23;;;6.45;;
21639;SDS011;10981;45.462;10.974;2023-06-26T06:29:27;7.65;;;4.75;;
21639;SDS011;10981;45.462;10.974;2023-06-26T06:31:56;7.82;;;5.82;;
21639;SDS011;10981;45.462;10.974;2023-06-26T06:34:24;8.93;;;6.43;;
21639;SDS011;10981;45.462;10.974;2023-06-26T06:36:53;9.20;;;5.82;;
21639;SDS011;10981;45.462;10.974;2023-06-26T06:39:21;8.57;;;6.10;;
21639;SDS011;10981;45.462;10.974;2023-06-26T06:41:49;16.33;;;5.63;;
21639;SDS011;10981;45.462;10.974;2023-06-26T06:44:17;10.48;;;6.05;;
21639;SDS011;10981;45.462;10.974;2023-06-26T06:46:46;12.27;;;5.35;;
21639;SDS011;10981;45.462;10.974;2023-06-26T06:49:14;12.00;;;5.40;;
21639;SDS011;10981;45.462;10.974;2023-06-26T06:51:42;10.82;;;5.70;;
21639;SDS011;10981;45.462;10.974;2023-06-26T06:54:10;11.50;;;5.97;;
21639;SDS011;10981;45.462;10.974;2023-06-26T06:56:39;11.13;;;5.25;;
21639;SDS011;10981;45.462;10.974;2023-06-26T06:59:07;10.23;;;5.13;;
21639;SDS011;10981;45.462;10.974;2023-06-26T07:01:35;7.93;;;5.28;;
21639;SDS011;10981;45.462;10.974;2023-06-26T07:04:04;9.77;;;5.32;;
21639;SDS011;10981;45.462;10.974;2023-06-26T07:06:32;7.80;;;5.40;;
21639;SDS011;10981;45.462;10.974;2023-06-26T07:09:02;11.13;;;5.22;;
21639;SDS011;10981;45.462;10.974;2023-06-26T07:11:30;8.18;;;4.97;;
21639;SDS011;10981;45.462;10.974;2023-06-26T07:13:58;8.88;;;5.43;;
21639;SDS011;10981;45.462;10.974;2023-06-26T07:16:26;8.82;;;5.55;;
21639;SDS011;10981;45.462;10.974;2023-06-26T07:18:55;9.95;;;5.43;;
21639;SDS011;10981;45.462;10.974;2023-06-26T07:21:24;9.80;;;5.60;;
21639;SDS011;10981;45.462;10.974;2023-06-26T07:23:53;8.27;;;5.32;;
21639;SDS011;10981;45.462;10.974;2023-06-26T07:26:21;12.57;;;5.60;;
21639;SDS011;10981;45.462;10.974;2023-06-26T07:29:07;13.30;;;5.40;;
21639;SDS011;10981;45.462;10.974;2023-06-26T07:31:35;12.40;;;5.50;;
21639;SDS011;10981;45.462;10.974;2023-06-26T07:34:04;8.43;;;5.45;;
21639;SDS011;10981;45.462;10.974;2023-06-26T07:36:32;7.32;;;5.20;;
21639;SDS011;10981;45.462;10.974;2023-06-26T07:39:00;6.60;;;5.57;;
21639;SDS011;10981;45.462;10.974;2023-06-26T07:41:28;8.35;;;6.00;;
21639;SDS011;10981;45.462;10.974;2023-06-26T07:43:58;9.15;;;5.35;;
21639;SDS011;10981;45.462;10.974;2023-06-26T07:46:27;8.30;;;5.47;;
21639;SDS011;10981;45.462;10.974;2023-06-26T07:48:55;11.20;;;5.82;;
21639;SDS011;10981;45.462;10.974;2023-06-26T07:51:23;10.18;;;5.72;;
21639;SDS011;10981;45.462;10.974;2023-06-26T07:53:51;12.13;;;5.35;;
21639;SDS011;10981;45.462;10.974;2023-06-26T07:56:19;12.63;;;5.15;;
21639;SDS011;10981;45.462;10.974;2023-06-26T07:58:49;6.80;;;4.63;;
21639;SDS011;10981;45.462;10.974;2023-06-26T08:01:17;6.15;;;4.95;;
21639;SDS011;10981;45.462;10.974;2023-06-26T08:03:45;6.82;;;4.95;;
21639;SDS011;10981;45.462;10.974;2023-06-26T08:06:13;6.60;;;5.43;;
21639;SDS011;10981;45.462;10.974;2023-06-26T08:08:42;10.60;;;4.65;;
21639;SDS011;10981;45.462;10.974;2023-06-26T08:11:10;12.40;;;5.32;;
21639;SDS011;10981;45.462;10.974;2023-06-26T08:13:38;9.30;;;5.30;;
21639;SDS011;10981;45.462;10.974;2023-06-26T08:16:06;9.60;;;5.82;;
21639;SDS011;10981;45.462;10.974;2023-06-26T08:18:34;11.13;;;5.95;;
21639;SDS011;10981;45.462;10.974;2023-06-26T08:21:05;8.23;;;5.60;;
21639;SDS011;10981;45.462;10.974;2023-06-26T08:23:33;10.35;;;5.60;;
21639;SDS011;10981;45.462;10.974;2023-06-26T08:26:03;15.02;;;6.03;;
21639;SDS011;10981;45.462;10.974;2023-06-26T08:28:31;11.73;;;5.68;;
21639;SDS011;10981;45.462;10.974;2023-06-26T08:30:59;11.43;;;5.13;;
21639;SDS011;10981;45.462;10.974;2023-06-26T08:33:27;7.00;;;5.32;;
21639;SDS011;10981;45.462;10.974;2023-06-26T08:35:56;11.23;;;6.05;;
21639;SDS011;10981;45.462;10.974;2023-06-26T08:38:24;9.73;;;6.18;;
21639;SDS011;10981;45.462;10.974;2023-06-26T08:40:52;12.43;;;6.03;;
21639;SDS011;10981;45.462;10.974;2023-06-26T08:43:20;7.53;;;5.18;;
21639;SDS011;10981;45.462;10.974;2023-06-26T08:45:49;8.00;;;5.13;;
21639;SDS011;10981;45.462;10.974;2023-06-26T08:48:20;10.95;;;5.47;;
21639;SDS011;10981;45.462;10.974;2023-06-26T08:50:49;9.73;;;6.00;;
21639;SDS011;10981;45.462;10.974;2023-06-26T08:56:59;10.93;;;5.20;;
21639;SDS011;10981;45.462;10.974;2023-06-26T08:59:19;6.90;;;4.78;;
21639;SDS011;10981;45.462;10.974;2023-06-26T09:01:51;12.73;;;5.50;;
21639;SDS011;10981;45.462;10.974;2023-06-26T09:04:20;16.05;;;5.22;;
21639;SDS011;10981;45.462;10.974;2023-06-26T09:06:48;14.38;;;5.18;;
21639;SDS011;10981;45.462;10.974;2023-06-26T09:09:16;11.30;;;5.82;;
21639;SDS011;10981;45.462;10.974;2023-06-26T09:11:44;7.82;;;5.10;;
21639;SDS011;10981;45.462;10.974;2023-06-26T09:14:13;10.05;;;5.15;;
21639;SDS011;10981;45.462;10.974;2023-06-26T09:16:43;8.18;;;5.10;;
21639;SDS011;10981;45.462;10.974;2023-06-26T09:19:12;7.10;;;4.88;;
21639;SDS011;10981;45.462;10.974;2023-06-26T09:21:42;6.88;;;5.20;;
21639;SDS011;10981;45.462;10.974;2023-06-26T09:24:10;8.02;;;5.03;;
21639;SDS011;10981;45.462;10.974;2023-06-26T09:26:39;9.57;;;5.18;;
21639;SDS011;10981;45.462;10.974;2023-06-26T09:29:08;10.82;;;5.30;;
21639;SDS011;10981;45.462;10.974;2023-06-26T09:31:38;11.80;;;5.20;;
21639;SDS011;10981;45.462;10.974;2023-06-26T09:34:09;6.78;;;4.82;;
21639;SDS011;10981;45.462;10.974;2023-06-26T09:36:37;9.93;;;4.80;;
21639;SDS011;10981;45.462;10.974;2023-06-26T09:39:07;6.32;;;4.88;;
21639;SDS011;10981;45.462;10.974;2023-06-26T09:41:43;12.35;;;4.97;;
21639;SDS011;10981;45.462;10.974;2023-06-26T09:44:13;7.47;;;4.90;;
21639;SDS011;10981;45.462;10.974;2023-06-26T09:46:44;14.10;;;4.95;;
21639;SDS011;10981;45.462;10.974;2023-06-26T09:49:13;7.13;;;4.43;;
21639;SDS011;10981;45.462;10.974;2023-06-26T09:51:42;6.57;;;4.93;;
21639;SDS011;10981;45.462;10.974;2023-06-26T09:54:10;8.07;;;5.18;;
21639;SDS011;10981;45.462;10.974;2023-06-26T09:56:39;12.57;;;4.80;;
21639;SDS011;10981;45.462;10.974;2023-06-26T09:59:07;6.30;;;4.20;;
21639;SDS011;10981;45.462;10.974;2023-06-26T10:01:39;8.35;;;5.22;;
21639;SDS011;10981;45.462;10.974;2023-06-26T10:04:09;5.95;;;5.05;;
21639;SDS011;10981;45.462;10.974;2023-06-26T10:06:46;7.03;;;4.75;;
21639;SDS011;10981;45.462;10.974;2023-06-26T10:09:18;9.65;;;4.90;;
21639;SDS011;10981;45.462;10.974;2023-06-26T10:11:57;8.13;;;4.80;;
21639;SDS011;10981;45.462;10.974;2023-06-26T10:14:37;7.20;;;4.57;;
21639;SDS011;10981;45.462;10.974;2023-06-26T10:17:10;8.05;;;4.95;;
21639;SDS011;10981;45.462;10.974;2023-06-26T10:19:44;8.80;;;5.18;;
21639;SDS011;10981;45.462;10.974;2023-06-26T10:22:17;6.00;;;4.93;;
21639;SDS011;10981;45.462;10.974;2023-06-26T10:24:49;7.32;;;5.47;;
21639;SDS011;10981;45.462;10.974;2023-06-26T10:27:18;6.28;;;4.72;;
21639;SDS011;10981;45.462;10.974;2023-06-26T10:29:52;8.27;;;4.93;;
21639;SDS011;10981;45.462;10.974;2023-06-26T10:32:27;6.50;;;5.03;;
21639;SDS011;10981;45.462;10.974;2023-06-26T10:34:56;6.15;;;5.22;;
21639;SDS011;10981;45.462;10.974;2023-06-26T10:37:44;7.18;;;4.95;;
21639;SDS011;10981;45.462;10.974;2023-06-26T10:40:25;9.05;;;4.95;;
21639;SDS011;10981;45.462;10.974;2023-06-26T10:43:07;7.95;;;4.72;;
21639;SDS011;10981;45.462;10.974;2023-06-26T10:45:37;7.38;;;4.60;;
21639;SDS011;10981;45.462;10.974;2023-06-26T10:48:12;7.13;;;5.43;;
21639;SDS011;10981;45.462;10.974;2023-06-26T10:50:46;11.63;;;4.65;;
21639;SDS011;10981;45.462;10.974;2023-06-26T10:58:40;6.03;;;3.72;;
21639;SDS011;10981;45.462;10.974;2023-06-26T11:01:14;10.60;;;4.57;;
21639;SDS011;10981;45.462;10.974;2023-06-26T11:04:01;9.82;;;4.63;;
21639;SDS011;10981;45.462;10.974;2023-06-26T11:06:33;8.50;;;4.60;;
21639;SDS011;10981;45.462;10.974;2023-06-26T11:14:25;6.03;;;4.85;;
21639;SDS011;10981;45.462;10.974;2023-06-26T11:16:55;5.93;;;4.55;;
21639;SDS011;10981;45.462;10.974;2023-06-26T11:19:25;5.47;;;4.97;;
21639;SDS011;10981;45.462;10.974;2023-06-26T11:21:58;6.55;;;4.68;;
21639;SDS011;10981;45.462;10.974;2023-06-26T11:24:29;5.60;;;4.95;;
21639;SDS011;10981;45.462;10.974;2023-06-26T11:27:01;6.75;;;4.78;;
21639;SDS011;10981;45.462;10.974;2023-06-26T11:29:31;5.88;;;4.68;;
21639;SDS011;10981;45.462;10.974;2023-06-26T11:32:01;8.02;;;5.03;;
21639;SDS011;10981;45.462;10.974;2023-06-26T11:34:33;6.32;;;4.70;;
21639;SDS011;10981;45.462;10.974;2023-06-26T11:37:02;8.35;;;4.45;;
21639;SDS011;10981;45.462;10.974;2023-06-26T11:39:30;6.32;;;4.90;;
21639;SDS011;10981;45.462;10.974;2023-06-26T11:41:59;5.93;;;4.70;;
21639;SDS011;10981;45.462;10.974;2023-06-26T11:44:32;8.73;;;5.22;;
21639;SDS011;10981;45.462;10.974;2023-06-26T11:47:12;5.10;;;4.55;;
21639;SDS011;10981;45.462;10.974;2023-06-26T11:49:44;5.40;;;4.63;;
21639;SDS011;10981;45.462;10.974;2023-06-26T11:52:14;7.57;;;4.57;;
21639;SDS011;10981;45.462;10.974;2023-06-26T11:54:44;8.98;;;4.57;;
21639;SDS011;10981;45.462;10.974;2023-06-26T11:57:13;10.68;;;4.93;;
21639;SDS011;10981;45.462;10.974;2023-06-26T11:59:49;5.43;;;4.70;;
21639;SDS011;10981;45.462;10.974;2023-06-26T12:02:19;8.40;;;4.78;;
21639;SDS011;10981;45.462;10.974;2023-06-26T12:04:49;6.30;;;4.85;;
21639;SDS011;10981;45.462;10.974;2023-06-26T12:07:17;10.63;;;5.25;;
21639;SDS011;10981;45.462;10.974;2023-06-26T12:09:46;9.68;;;5.10;;
21639;SDS011;10981;45.462;10.974;2023-06-26T12:12:17;4.63;;;4.22;;
21639;SDS011;10981;45.462;10.974;2023-06-26T12:14:45;8.27;;;5.15;;
21639;SDS011;10981;45.462;10.974;2023-06-26T12:17:14;6.60;;;4.65;;
21639;SDS011;10981;45.462;10.974;2023-06-26T12:19:43;8.38;;;4.55;;
21639;SDS011;10981;45.462;10.974;2023-06-26T12:22:16;7.97;;;5.15;;
21639;SDS011;10981;45.462;10.974;2023-06-26T12:24:45;7.35;;;5.15;;
21639;SDS011;10981;45.462;10.974;2023-06-26T12:27:15;7.40;;;4.38;;
21639;SDS011;10981;45.462;10.974;2023-06-26T12:29:47;7.88;;;5.05;;
21639;SDS011;10981;45.462;10.974;2023-06-26T12:32:19;5.97;;;5.38;;
21639;SDS011;10981;45.462;10.974;2023-06-26T12:34:53;7.70;;;4.90;;
21639;SDS011;10981;45.462;10.974;2023-06-26T12:37:24;9.65;;;5.28;;
21639;SDS011;10981;45.462;10.974;2023-06-26T12:39:56;7.30;;;5.13;;
21639;SDS011;10981;45.462;10.974;2023-06-26T12:42:25;5.75;;;4.30;;
21639;SDS011;10981;45.462;10.974;2023-06-26T12:44:58;4.78;;;4.28;;
21639;SDS011;10981;45.462;10.974;2023-06-26T12:47:27;7.45;;;4.50;;
21639;SDS011;10981;45.462;10.974;2023-06-26T12:49:56;9.93;;;5.43;;
21639;SDS011;10981;45.462;10.974;2023-06-26T12:52:25;9.05;;;4.90;;
21639;SDS011;10981;45.462;10.974;2023-06-26T12:54:54;6.63;;;5.00;;
21639;SDS011;10981;45.462;10.974;2023-06-26T12:57:24;12.07;;;5.38;;
21639;SDS011;10981;45.462;10.974;2023-06-26T12:59:53;8.90;;;5.18;;
21639;SDS011;10981;45.462;10.974;2023-06-26T13:02:21;10.70;;;5.32;;
21639;SDS011;10981;45.462;10.974;2023-06-26T13:04:49;7.18;;;5.18;;
21639;SDS011;10981;45.462;10.974;2023-06-26T13:07:18;7.50;;;4.82;;
21639;SDS011;10981;45.462;10.974;2023-06-26T13:09:46;7.50;;;4.68;;
21639;SDS011;10981;45.462;10.974;2023-06-26T13:12:15;6.65;;;4.65;;
21639;SDS011;10981;45.462;10.974;2023-06-26T13:14:44;10.13;;;4.95;;
21639;SDS011;10981;45.462;10.974;2023-06-26T13:17:12;7.10;;;4.88;;
21639;SDS011;10981;45.462;10.974;2023-06-26T13:19:40;8.57;;;5.32;;
21639;SDS011;10981;45.462;10.974;2023-06-26T13:22:08;7.30;;;4.80;;
21639;SDS011;10981;45.462;10.974;2023-06-26T13:24:36;8.80;;;5.07;;
21639;SDS011;10981;45.462;10.974;2023-06-26T13:27:05;7.57;;;4.32;;
21639;SDS011;10981;45.462;10.974;2023-06-26T13:29:33;8.57;;;4.97;;
21639;SDS011;10981;45.462;10.974;2023-06-26T13:32:02;7.03;;;5.68;;
21639;SDS011;10981;45.462;10.974;2023-06-26T13:34:31;8.70;;;4.90;;
21639;SDS011;10981;45.462;10.974;2023-06-26T13:36:59;6.35;;;4.88;;
21639;SDS011;10981;45.462;10.974;2023-06-26T13:39:27;11.80;;;5.43;;
21639;SDS011;10981;45.462;10.974;2023-06-26T13:41:55;8.77;;;6.57;;
21639;SDS011;10981;45.462;10.974;2023-06-26T13:44:24;16.20;;;5.57;;
21639;SDS011;10981;45.462;10.974;2023-06-26T13:47:02;14.57;;;6.60;;
21639;SDS011;10981;45.462;10.974;2023-06-26T13:49:30;5.70;;;4.85;;
21639;SDS011;10981;45.462;10.974;2023-06-26T13:52:01;8.18;;;5.63;;
21639;SDS011;10981;45.462;10.974;2023-06-26T13:54:30;7.95;;;5.20;;
21639;SDS011;10981;45.462;10.974;2023-06-26T13:56:58;7.90;;;5.53;;
21639;SDS011;10981;45.462;10.974;2023-06-26T13:59:29;8.13;;;5.15;;
21639;SDS011;10981;45.462;10.974;2023-06-26T14:01:57;10.38;;;5.50;;
21639;SDS011;10981;45.462;10.974;2023-06-26T14:04:26;7.32;;;5.43;;
21639;SDS011;10981;45.462;10.974;2023-06-26T14:06:57;10.38;;;5.25;;
21639;SDS011;10981;45.462;10.974;2023-06-26T14:09:25;7.70;;;5.10;;
21639;SDS011;10981;45.462;10.974;2023-06-26T14:11:54;6.88;;;5.43;;
21639;SDS011;10981;45.462;10.974;2023-06-26T14:14:22;6.38;;;4.78;;
21639;SDS011;10981;45.462;10.974;2023-06-26T14:16:56;6.10;;;5.07;;
21639;SDS011;10981;45.462;10.974;2023-06-26T14:19:26;9.70;;;5.45;;
21639;SDS011;10981;45.462;10.974;2023-06-26T14:21:57;8.88;;;5.68;;
21639;SDS011;10981;45.462;10.974;2023-06-26T14:24:26;7.95;;;5.70;;
21639;SDS011;10981;45.462;10.974;2023-06-26T14:26:54;9.02;;;5.50;;
21639;SDS011;10981;45.462;10.974;2023-06-26T14:29:23;10.45;;;5.72;;
21639;SDS011;10981;45.462;10.974;2023-06-26T14:31:51;13.00;;;6.32;;
21639;SDS011;10981;45.462;10.974;2023-06-26T14:34:22;11.40;;;5.82;;
21639;SDS011;10981;45.462;10.974;2023-06-26T14:36:51;8.73;;;6.00;;
21639;SDS011;10981;45.462;10.974;2023-06-26T14:39:19;8.82;;;5.60;;
21639;SDS011;10981;45.462;10.974;2023-06-26T14:41:48;10.02;;;6.22;;
21639;SDS011;10981;45.462;10.974;2023-06-26T14:44:16;9.48;;;5.63;;
21639;SDS011;10981;45.462;10.974;2023-06-26T14:46:45;7.65;;;5.90;;
21639;SDS011;10981;45.462;10.974;2023-06-26T14:49:13;6.43;;;5.32;;
21639;SDS011;10981;45.462;10.974;2023-06-26T14:51:42;6.15;;;5.55;;
21639;SDS011;10981;45.462;10.974;2023-06-26T14:54:10;11.75;;;5.43;;
21639;SDS011;10981;45.462;10.974;2023-06-26T14:56:38;9.43;;;5.72;;
21639;SDS011;10981;45.462;10.974;2023-06-26T14:59:06;10.18;;;6.68;;
21639;SDS011;10981;45.462;10.974;2023-06-26T15:01:37;10.15;;;6.32;;
21639;SDS011;10981;45.462;10.974;2023-06-26T15:04:06;9.50;;;6.18;;
21639;SDS011;10981;45.462;10.974;2023-06-26T15:06:34;8.80;;;6.32;;
21639;SDS011;10981;45.462;10.974;2023-06-26T15:09:03;10.38;;;5.85;;
21639;SDS011;10981;45.462;10.974;2023-06-26T15:11:32;10.90;;;6.35;;
21639;SDS011;10981;45.462;10.974;2023-06-26T15:14:01;8.88;;;6.13;;
21639;SDS011;10981;45.462;10.974;2023-06-26T15:16:30;7.22;;;5.75;;